Time;durP1;ratioP1;P1;durP2;ratioP2;P2;SDS_P1;SDS_P2;PMS_P1;PMS_P2;Temp;Humidity;BMP_temperature;BMP_pressure;BME280_temperature;BME280_humidity;BME280_pressure;Samples;Min_cycle;Max_cycle;Signal;HPM_P1;HPM_P2
2021/06/16 00:02:11;;;;;;;;;23.00;21.00;;;;;25.60;50.22;101211.19;5084713;27;45295;-87
2021/06/16 00:04:36;;;;;;;;;24.50;21.50;;;;;25.65;50.98;101223.53;5091984;27;45534;-88
2021/06/16 00:07:02;;;;;;;;;23.00;22.00;;;;;25.64;50.60;101226.28;5098122;28;46498;-87
2021/06/16 00:09:27;;;;;;;;;22.33;21.33;;;;;25.64;50.30;101223.56;5102206;27;45345;-87
2021/06/16 00:11:53;;;;;;;;;20.33;19.67;;;;;25.65;50.36;101225.34;5099454;28;44746;-87
2021/06/16 00:14:22;;;;;;;;;24.33;19.67;;;;;25.58;50.34;101207.66;5086881;27;45470;-88
2021/06/16 00:16:47;;;;;;;;;23.33;22.33;;;;;25.62;50.45;101215.56;5083413;27;45516;-88
2021/06/16 00:19:13;;;;;;;;;20.67;19.67;;;;;25.59;50.16;101215.72;5080996;27;45370;-87
2021/06/16 00:21:40;;;;;;;;;20.67;19.67;;;;;25.55;50.51;101206.84;5083496;27;45305;-88
2021/06/16 00:24:06;;;;;;;;;26.50;24.75;;;;;25.60;50.63;101217.44;5079401;27;45372;-87
2021/06/16 00:26:31;;;;;;;;;23.00;21.00;;;;;25.56;50.83;101205.94;5076874;28;48347;-87
2021/06/16 00:28:57;;;;;;;;;22.00;21.00;;;;;25.61;50.17;101218.31;5077993;27;45489;-88
2021/06/16 00:31:22;;;;;;;;;22.75;21.75;;;;;25.56;50.59;101210.44;5079091;27;45352;-87
2021/06/16 00:33:48;;;;;;;;;20.75;20.25;;;;;25.55;50.00;101200.63;5078937;27;45358;-88
2021/06/16 00:36:13;;;;;;;;;20.33;20.00;;;;;25.58;50.49;101208.56;5077914;27;46380;-87
2021/06/16 00:38:38;;;;;;;;;23.33;22.33;;;;;25.53;50.17;101197.97;5078062;27;45364;-89
2021/06/16 00:41:04;;;;;;;;;21.00;19.33;;;;;25.48;50.57;101197.28;5077871;27;45853;-88
2021/06/16 00:43:29;;;;;;;;;20.33;18.33;;;;;25.55;50.37;101214.91;5079747;27;45384;-86
2021/06/16 00:45:55;;;;;;;;;20.00;18.67;;;;;25.49;50.42;101200.84;5076896;27;46338;-87
2021/06/16 00:48:21;;;;;;;;;21.00;20.00;;;;;25.50;50.57;101205.28;5077275;27;45383;-86
2021/06/16 00:50:48;;;;;;;;;21.67;20.67;;;;;25.49;50.57;101207.09;5077644;28;45350;-88
2021/06/16 00:53:13;;;;;;;;;23.33;19.67;;;;;25.46;50.71;101192.88;5077853;27;45385;-89
2021/06/16 00:55:39;;;;;;;;;21.67;21.33;;;;;25.48;50.59;101202.66;5075990;28;47082;-87
2021/06/16 00:58:10;;;;;;;;;22.00;19.00;;;;;25.46;50.52;101196.44;5075880;28;45411;-87
2021/06/16 01:01:05;;;;;;;;;21.33;19.67;;;;;25.47;50.53;101202.72;5077266;28;45536;-87
2021/06/16 01:03:38;;;;;;;;;19.67;19.33;;;;;25.46;50.54;101188.38;5075705;28;45330;-87
2021/06/16 01:06:09;;;;;;;;;18.75;18.00;;;;;25.44;49.87;101188.44;5076678;27;45647;-87
2021/06/16 01:08:46;;;;;;;;;23.25;20.50;;;;;25.33;50.45;101175.41;5077116;27;45407;-87
2021/06/16 01:11:13;;;;;;;;;21.50;21.00;;;;;25.42;49.94;101192.13;5077530;27;45266;-89
2021/06/16 01:13:50;;;;;;;;;20.00;19.00;;;;;25.33;50.31;101164.63;5076061;28;45341;-87
2021/06/16 01:16:16;;;;;;;;;22.67;19.67;;;;;25.40;50.24;101177.84;5077104;27;45307;-87
2021/06/16 01:18:51;;;;;;;;;24.67;22.67;;;;;25.38;50.14;101179.72;5077286;27;45373;-88
2021/06/16 01:21:18;;;;;;;;;21.00;21.00;;;;;25.31;50.30;101163.81;5077613;28;45447;-88
2021/06/16 01:24:14;;;;;;;;;20.00;19.67;;;;;25.35;49.90;101174.44;5079256;27;45413;-87
2021/06/16 01:26:44;;;;;;;;;20.00;18.67;;;;;25.25;50.36;101153.28;5080831;27;45468;-87
2021/06/16 01:29:15;;;;;;;;;19.33;19.33;;;;;25.29;50.32;101162.13;5080415;27;45446;-87
2021/06/16 01:31:42;;;;;;;;;26.33;20.00;;;;;25.29;50.36;101160.31;5080707;27;45316;-88
2021/06/16 01:34:10;;;;;;;;;20.33;19.00;;;;;25.30;50.05;101172.81;5079328;27;45400;-87
2021/06/16 01:36:39;;;;;;;;;27.00;21.00;;;;;25.24;50.71;101159.59;5080222;27;45454;-87
2021/06/16 01:39:10;;;;;;;;;19.33;19.00;;;;;25.27;49.88;101167.56;5080410;27;45473;-88
2021/06/16 01:41:37;;;;;;;;;21.00;19.00;;;;;25.19;50.53;101156.22;5081316;27;45400;-89
2021/06/16 01:44:05;;;;;;;;;19.33;19.00;;;;;25.15;50.92;101143.81;5079689;28;45399;-87
2021/06/16 01:46:31;;;;;;;;;20.67;20.67;;;;;25.09;50.65;101137.72;5078347;28;48260;-87
2021/06/16 01:48:57;;;;;;;;;22.00;20.67;;;;;25.15;50.99;101149.19;5078937;27;46046;-88
2021/06/16 01:51:25;;;;;;;;;25.67;23.67;;;;;25.16;50.89;101159.00;5080751;27;45433;-87
2021/06/16 01:53:52;;;;;;;;;24.67;22.33;;;;;25.14;51.29;101142.94;5081457;27;45342;-87
2021/06/16 01:56:19;;;;;;;;;26.67;24.00;;;;;25.17;51.42;101144.63;5079864;28;46351;-88
2021/06/16 01:58:47;;;;;;;;;21.33;21.33;;;;;25.14;51.82;101155.50;5084507;27;45357;-87
2021/06/16 02:01:14;;;;;;;;;23.00;21.00;;;;;25.13;51.46;101149.22;5085594;28;45471;-87
2021/06/16 02:03:40;;;;;;;;;21.67;20.00;;;;;25.02;51.52;101128.16;5083457;27;45445;-88
2021/06/16 02:06:06;;;;;;;;;22.25;21.75;;;;;25.02;51.56;101128.16;5079273;28;48138;-89
2021/06/16 02:08:35;;;;;;;;;21.50;21.50;;;;;25.09;51.08;101150.28;5079799;27;45630;-88
2021/06/16 02:11:02;;;;;;;;;23.00;23.00;;;;;24.94;51.90;101119.41;5078574;27;45292;-87
2021/06/16 02:13:37;;;;;;;;;22.67;21.33;;;;;24.98;52.16;101130.03;5079887;28;45470;-88
2021/06/16 02:16:08;;;;;;;;;24.00;23.00;;;;;24.99;51.89;101130.94;5079350;27;46848;-87
2021/06/16 02:18:43;;;;;;;;;23.00;20.33;;;;;24.94;52.20;101119.41;5079348;28;45334;-87
2021/06/16 02:21:09;;;;;;;;;21.33;21.33;;;;;24.98;52.21;101132.72;5079585;27;45244;-88
2021/06/16 02:23:35;;;;;;;;;24.00;23.00;;;;;24.95;52.40;101130.16;5078348;27;45272;-87
2021/06/16 02:26:01;;;;;;;;;22.67;21.67;;;;;24.90;52.34;101124.03;5077812;27;47133;-88
2021/06/16 02:28:26;;;;;;;;;19.33;17.33;;;;;24.94;52.26;101128.38;5077747;27;45347;-88
2021/06/16 02:30:52;;;;;;;;;23.00;21.00;;;;;24.84;52.07;101114.41;5078421;27;45445;-87
2021/06/16 02:33:18;;;;;;;;;20.00;19.00;;;;;24.86;52.45;101115.22;5079466;27;45527;-87
2021/06/16 02:35:43;;;;;;;;;19.00;19.00;;;;;24.81;52.41;101106.44;5078842;27;46477;-87
2021/06/16 02:38:12;;;;;;;;;25.50;23.75;;;;;24.84;52.67;101125.16;5079306;28;45427;-87
2021/06/16 02:40:41;;;;;;;;;24.00;21.33;;;;;24.83;52.33;101119.84;5079556;27;45493;-87
2021/06/16 02:43:08;;;;;;;;;19.33;19.00;;;;;24.79;52.57;101112.81;5079959;27;45369;-87
2021/06/16 02:45:35;;;;;;;;;24.67;23.67;;;;;24.73;53.01;101104.03;5078657;27;45512;-87
2021/06/16 02:48:02;;;;;;;;;21.00;21.00;;;;;24.76;52.79;101103.06;5078818;27;45377;-88
2021/06/16 02:50:29;;;;;;;;;24.67;22.00;;;;;24.69;52.76;101093.44;5078906;28;45481;-87
2021/06/16 02:52:59;;;;;;;;;22.00;20.33;;;;;24.73;52.52;101111.22;5079234;27;45674;-87
2021/06/16 02:55:26;;;;;;;;;20.33;19.33;;;;;24.73;52.94;101104.03;5077191;27;46383;-86
2021/06/16 02:57:53;;;;;;;;;20.00;19.67;;;;;24.68;52.58;101095.28;5078867;27;45402;-86
2021/06/16 03:00:20;;;;;;;;;29.33;25.33;;;;;24.68;53.10;101103.34;5078836;27;45330;-86
2021/06/16 03:02:48;;;;;;;;;24.00;22.67;;;;;24.64;53.14;101099.88;5079353;27;45199;-88
2021/06/16 03:05:23;;;;;;;;;22.00;22.00;;;;;24.63;52.79;101100.81;5078736;27;46496;-87
2021/06/16 03:07:56;;;;;;;;;23.00;20.33;;;;;24.55;53.34;101088.59;5078758;28;45408;-87
2021/06/16 03:10:23;;;;;;;;;23.00;22.25;;;;;24.54;53.37;101103.81;5078636;27;45420;-87
2021/06/16 03:12:51;;;;;;;;;20.33;20.33;;;;;24.57;53.42;101095.66;5077787;27;45333;-86
2021/06/16 03:15:17;;;;;;;;;24.33;23.00;;;;;24.55;53.37;101097.53;5078614;28;45897;-87
2021/06/16 03:17:45;;;;;;;;;24.00;21.67;;;;;24.57;53.40;101102.84;5078569;27;45463;-86
2021/06/16 03:20:14;;;;;;;;;20.33;19.00;;;;;24.46;53.09;101076.34;5077803;27;45457;-88
2021/06/16 03:22:41;;;;;;;;;22.00;22.00;;;;;24.40;53.35;101083.72;5079166;27;45512;-88
2021/06/16 03:25:08;;;;;;;;;26.00;23.33;;;;;24.46;53.08;101087.09;5078654;27;45353;-87
2021/06/16 03:27:34;;;;;;;;;21.33;21.33;;;;;24.49;53.46;101105.81;5078517;27;45391;-87
2021/06/16 03:30:00;;;;;;;;;21.00;19.00;;;;;24.42;53.22;101088.16;5078477;27;45315;-87
2021/06/16 03:32:27;;;;;;;;;23.00;21.67;;;;;24.40;53.64;101093.56;5078838;27;45700;-86
2021/06/16 03:34:54;;;;;;;;;21.67;20.33;;;;;24.35;53.60;101084.78;5078279;27;46225;-87
2021/06/16 03:37:20;;;;;;;;;22.33;22.33;;;;;24.42;53.91;101097.09;5078335;27;45397;-86
2021/06/16 03:39:51;;;;;;;;;22.00;22.00;;;;;24.38;53.70;101098.13;5077013;28;45419;-87
2021/06/16 03:42:18;;;;;;;;;24.67;22.67;;;;;24.34;53.90;101092.00;5079197;27;45356;-86
2021/06/16 03:44:45;;;;;;;;;22.00;20.67;;;;;24.40;54.12;101104.31;5078794;27;45476;-87
2021/06/16 03:47:12;;;;;;;;;24.00;21.00;;;;;24.33;53.76;101095.59;5075868;28;45675;-86
2021/06/16 03:49:40;;;;;;;;;21.67;21.00;;;;;24.34;54.19;101097.38;5077147;27;45363;-89
2021/06/16 03:52:07;;;;;;;;;24.67;23.67;;;;;24.35;54.18;101099.09;5078366;27;45456;-86
2021/06/16 03:54:35;;;;;;;;;25.33;22.00;;;;;24.32;54.49;101096.53;5093522;27;48367;-87
2021/06/16 03:57:00;;;;;;;;;23.67;20.33;;;;;24.31;54.19;101094.78;5078196;28;45511;-87
2021/06/16 03:59:26;;;;;;;;;23.33;21.67;;;;;24.24;54.33;101085.19;5080476;27;45396;-86
2021/06/16 04:01:52;;;;;;;;;22.67;21.33;;;;;24.30;54.20;101095.72;5095715;27;45262;-87
2021/06/16 04:04:18;;;;;;;;;26.75;23.50;;;;;24.22;54.18;101081.66;5093313;28;46222;-87
2021/06/16 04:06:45;;;;;;;;;22.67;21.67;;;;;24.27;54.45;101091.31;5090098;28;45341;-87
2021/06/16 04:09:12;;;;;;;;;20.33;19.00;;;;;24.27;54.79;101093.13;5096674;27;45227;-86
2021/06/16 04:11:39;;;;;;;;;22.33;22.33;;;;;24.23;54.65;101083.41;5095205;27;45317;-87
2021/06/16 04:14:05;;;;;;;;;24.00;24.00;;;;;24.25;54.99;101095.00;5087292;27;46111;-86
2021/06/16 04:16:31;;;;;;;;;26.33;24.00;;;;;24.21;54.78;101086.13;5087727;27;45287;-88
2021/06/16 04:18:57;;;;;;;;;23.33;21.67;;;;;24.24;54.86;101099.47;5079626;28;45393;-86
2021/06/16 04:21:23;;;;;;;;;24.00;22.67;;;;;24.22;54.64;101092.38;5078372;28;45396;-87
2021/06/16 04:23:50;;;;;;;;;24.67;23.00;;;;;24.17;55.20;101089.84;5078091;27;46607;-87
2021/06/16 04:26:15;;;;;;;;;22.33;22.33;;;;;24.16;54.77;101088.09;5078531;27;45363;-87
2021/06/16 04:28:41;;;;;;;;;23.00;22.00;;;;;24.12;55.27;101076.59;5078009;28;45374;-87
2021/06/16 04:31:06;;;;;;;;;24.33;24.33;;;;;24.16;55.11;101080.91;5085094;27;45400;-87
2021/06/16 04:33:32;;;;;;;;;22.00;22.00;;;;;24.13;54.96;101072.09;5087964;27;45385;-86
2021/06/16 04:35:58;;;;;;;;;25.00;24.00;;;;;24.17;54.85;101077.31;5083579;27;45420;-86
2021/06/16 04:38:24;;;;;;;;;19.33;19.33;;;;;24.10;55.21;101064.13;5078766;27;45331;-87
2021/06/16 04:40:49;;;;;;;;;26.33;25.67;;;;;24.18;55.30;101072.78;5077833;27;45346;-86
2021/06/16 04:43:14;;;;;;;;;23.33;22.33;;;;;24.15;55.06;101067.53;5076021;28;48219;-87
2021/06/16 04:45:40;;;;;;;;;26.33;24.00;;;;;24.15;55.01;101060.38;5077756;27;45353;-86
2021/06/16 04:48:05;;;;;;;;;30.00;25.50;;;;;24.21;55.42;101071.81;5077485;27;45423;-86
2021/06/16 04:50:31;;;;;;;;;26.50;25.00;;;;;24.12;54.92;101055.09;5077618;27;45404;-86
2021/06/16 04:52:57;;;;;;;;;26.67;23.67;;;;;24.22;55.23;101081.66;5077248;27;46426;-88
2021/06/16 04:55:22;;;;;;;;;24.00;24.00;;;;;24.17;55.72;101063.00;5077126;27;45466;-86
2021/06/16 04:57:48;;;;;;;;;23.00;22.00;;;;;24.08;55.37;101042.72;5076886;28;45329;-86
2021/06/16 05:00:14;;;;;;;;;24.67;23.67;;;;;24.19;55.02;101058.44;5077266;27;45445;-86
2021/06/16 05:02:40;;;;;;;;;28.50;23.75;;;;;24.22;55.15;101060.16;5077395;28;47275;-86
2021/06/16 05:05:06;;;;;;;;;29.50;27.75;;;;;24.23;55.28;101059.25;5076999;27;45274;-86
2021/06/16 05:07:32;;;;;;;;;28.33;23.67;;;;;24.16;55.05;101048.69;5075542;28;45429;-86
2021/06/16 05:09:57;;;;;;;;;26.00;25.00;;;;;24.18;55.03;101043.25;5077715;27;45294;-87
2021/06/16 05:12:22;;;;;;;;;27.00;25.33;;;;;24.14;55.32;101038.91;5076688;27;45468;-86
2021/06/16 05:14:48;;;;;;;;;26.33;24.00;;;;;24.22;54.65;101044.94;5076747;27;45390;-87
2021/06/16 05:17:13;;;;;;;;;23.50;23.50;;;;;24.26;54.17;101045.72;5077094;27;45977;-86
2021/06/16 05:19:39;;;;;;;;;28.00;22.67;;;;;24.24;54.45;101044.91;5077441;27;45397;-86
2021/06/16 05:22:10;;;;;;;;;27.00;25.33;;;;;24.20;54.50;101032.47;5078154;27;46028;-87
2021/06/16 05:24:36;;;;;;;;;22.33;21.33;;;;;24.16;54.88;101023.63;5079285;27;45393;-87
2021/06/16 05:27:02;;;;;;;;;27.33;23.00;;;;;24.20;54.73;101033.34;5077106;27;45503;-88
2021/06/16 05:29:27;;;;;;;;;24.00;22.33;;;;;24.26;54.56;101048.41;5077936;27;45587;-88
2021/06/16 05:31:53;;;;;;;;;25.33;24.67;;;;;24.25;54.85;101043.94;5077189;28;45216;-87
2021/06/16 05:34:18;;;;;;;;;24.25;23.50;;;;;24.26;54.41;101045.72;5076045;28;45755;-88
2021/06/16 05:36:44;;;;;;;;;29.33;23.67;;;;;24.31;54.59;101054.47;5078499;27;45499;-87
2021/06/16 05:39:10;;;;;;;;;23.67;22.67;;;;;24.32;53.56;101045.50;5083091;27;45359;-87
2021/06/16 05:41:36;;;;;;;;;21.33;20.67;;;;;24.33;53.91;101047.25;5086358;27;45463;-87
2021/06/16 05:44:01;;;;;;;;;22.33;21.67;;;;;24.25;54.01;101028.72;5086646;28;45311;-87
2021/06/16 05:46:27;;;;;;;;;23.33;23.00;;;;;24.33;53.81;101039.19;5088098;28;45421;-88
2021/06/16 05:48:53;;;;;;;;;25.00;23.00;;;;;24.25;53.64;101017.97;5086263;27;45467;-88
2021/06/16 05:51:18;;;;;;;;;26.00;22.50;;;;;24.32;53.36;101033.88;5079821;27;45579;-88
2021/06/16 05:53:43;;;;;;;;;27.00;25.00;;;;;24.30;53.98;101028.56;5079731;27;45564;-87
2021/06/16 05:56:09;;;;;;;;;22.00;21.00;;;;;24.39;53.42;101036.28;5078860;27;45651;-90
2021/06/16 05:58:34;;;;;;;;;19.67;19.67;;;;;24.27;53.34;101020.59;5076440;28;45433;-89
2021/06/16 06:01:00;;;;;;;;;27.67;23.33;;;;;24.28;52.80;101025.91;5077168;27;45452;-86
2021/06/16 06:03:25;;;;;;;;;22.00;19.67;;;;;24.42;53.15;101047.84;5077560;27;45322;-89
2021/06/16 06:05:50;;;;;;;;;22.00;18.67;;;;;24.31;53.60;101024.03;5075755;27;45347;-88
2021/06/16 06:08:16;;;;;;;;;23.00;22.33;;;;;24.43;53.42;101042.41;5077218;27;45268;-89
2021/06/16 06:10:41;;;;;;;;;19.33;19.33;;;;;24.35;53.39;101028.38;5084017;27;45317;-87
2021/06/16 06:13:06;;;;;;;;;25.00;24.00;;;;;24.42;52.63;101037.97;5086721;27;45352;-87
2021/06/16 06:15:32;;;;;;;;;24.00;22.33;;;;;24.43;52.45;101038.88;5083741;27;45317;-87
2021/06/16 06:17:58;;;;;;;;;24.00;20.33;;;;;24.45;52.80;101039.69;5081872;27;45364;-88
2021/06/16 06:20:23;;;;;;;;;23.00;20.00;;;;;24.41;53.15;101036.22;5078880;28;47422;-87
2021/06/16 06:22:49;;;;;;;;;22.33;21.00;;;;;24.36;52.81;101036.41;5080440;27;45319;-86
2021/06/16 06:25:15;;;;;;;;;22.00;20.67;;;;;24.39;53.04;101020.16;5080818;27;45383;-86
2021/06/16 06:27:40;;;;;;;;;21.00;18.00;;;;;24.47;53.20;101041.38;5080867;27;45362;-87
2021/06/16 06:30:07;;;;;;;;;21.67;18.67;;;;;24.54;53.34;101046.53;5080574;27;45506;-86
2021/06/16 06:32:33;;;;;;;;;24.33;21.67;;;;;24.51;53.01;101040.31;5082340;27;45330;-88
2021/06/16 06:34:58;;;;;;;;;22.67;21.33;;;;;24.55;53.01;101042.91;5085782;27;45256;-86
2021/06/16 06:37:25;;;;;;;;;23.33;22.33;;;;;24.53;52.91;101032.22;5084171;27;45396;-85
2021/06/16 06:39:50;;;;;;;;;26.33;23.00;;;;;24.51;53.38;101023.34;5084383;27;45318;-85
2021/06/16 06:42:17;;;;;;;;;22.00;20.00;;;;;24.56;53.17;101032.09;5083968;27;45273;-88
2021/06/16 06:44:42;;;;;;;;;23.50;21.50;;;;;24.55;52.57;101024.09;5081410;27;45268;-86
2021/06/16 06:47:08;;;;;;;;;21.00;19.67;;;;;24.61;52.86;101030.13;5081005;27;45469;-86
2021/06/16 06:49:33;;;;;;;;;25.33;23.67;;;;;24.59;52.80;101032.00;5082545;27;45542;-85
2021/06/16 06:51:59;;;;;;;;;24.33;22.33;;;;;24.57;52.67;101015.06;5082670;27;45345;-86
2021/06/16 06:54:24;;;;;;;;;20.67;19.67;;;;;24.61;52.69;101014.00;5083920;27;45407;-87
2021/06/16 06:56:50;;;;;;;;;22.33;21.33;;;;;24.67;52.78;101025.44;5082989;27;45523;-86
2021/06/16 06:59:15;;;;;;;;;23.00;20.33;;;;;24.71;52.79;101025.28;5084364;27;45367;-85
2021/06/16 07:01:40;;;;;;;;;21.67;21.67;;;;;24.66;52.49;101013.84;5083899;27;45484;-87
2021/06/16 07:04:06;;;;;;;;;19.00;18.00;;;;;24.69;52.37;101016.38;5081663;27;45297;-85
2021/06/16 07:06:32;;;;;;;;;23.00;18.00;;;;;24.74;52.99;101017.09;5080788;27;45351;-85
2021/06/16 07:08:58;;;;;;;;;22.00;20.67;;;;;24.74;52.69;101008.16;5080526;27;45393;-86
2021/06/16 07:11:23;;;;;;;;;20.00;19.00;;;;;24.68;52.31;100992.25;5080186;27;45262;-87
2021/06/16 07:13:49;;;;;;;;;19.25;19.25;;;;;24.74;52.82;101000.97;5078235;28;45371;-86
2021/06/16 07:16:14;;;;;;;;;22.67;20.67;;;;;24.74;53.12;100995.59;5078378;27;45407;-87
2021/06/16 07:18:40;;;;;;;;;20.00;18.00;;;;;24.78;52.16;101000.84;5079070;27;46634;-86
2021/06/16 07:21:05;;;;;;;;;20.33;18.67;;;;;24.78;51.97;101004.41;5079112;28;45410;-87
2021/06/16 07:23:31;;;;;;;;;18.67;17.67;;;;;24.90;52.14;101012.94;5077512;27;45460;-87
2021/06/16 07:25:57;;;;;;;;;17.33;16.00;;;;;24.92;52.28;101016.44;5077924;27;45671;-88
2021/06/16 07:28:22;;;;;;;;;20.33;18.00;;;;;24.93;52.11;101007.44;5079146;27;45541;-86
2021/06/16 07:30:48;;;;;;;;;18.67;15.67;;;;;24.89;51.67;100995.06;5077425;28;45311;-87
2021/06/16 07:33:13;;;;;;;;;20.00;18.00;;;;;24.87;51.87;100990.59;5077549;27;45820;-87
2021/06/16 07:35:39;;;;;;;;;16.00;16.00;;;;;25.01;51.62;101013.44;5079560;27;45267;-87
2021/06/16 07:38:05;;;;;;;;;17.00;16.00;;;;;25.05;51.48;101006.09;5078921;27;45321;-87
2021/06/16 07:40:30;;;;;;;;;15.33;14.33;;;;;25.05;51.59;101000.72;5080247;27;45446;-86
2021/06/16 07:42:56;;;;;;;;;17.67;17.33;;;;;24.99;51.71;100985.72;5084583;27;45867;-87
2021/06/16 07:45:21;;;;;;;;;14.33;12.67;;;;;25.08;51.22;100985.38;5078986;27;45512;-88
2021/06/16 07:47:47;;;;;;;;;14.67;13.00;;;;;25.15;51.04;100991.34;5077024;27;46895;-86
2021/06/16 07:50:13;;;;;;;;;15.00;13.00;;;;;25.12;50.73;100979.84;5076965;28;45428;-88
2021/06/16 07:52:38;;;;;;;;;16.00;13.33;;;;;25.22;50.30;100989.31;5078949;27;45373;-88
2021/06/16 07:55:05;;;;;;;;;15.33;14.33;;;;;25.17;51.04;100976.03;5077030;28;45439;-88
2021/06/16 07:57:31;;;;;;;;;17.00;16.00;;;;;25.22;50.70;100970.47;5078342;27;45393;-87
2021/06/16 07:59:56;;;;;;;;;17.00;14.00;;;;;25.35;50.87;100981.63;5078398;27;45189;-89
2021/06/16 08:02:22;;;;;;;;;13.00;12.33;;;;;25.43;50.48;100983.97;5077368;27;45307;-87
2021/06/16 08:04:47;;;;;;;;;15.00;13.67;;;;;25.44;50.37;100969.59;5079182;27;45183;-89
2021/06/16 08:07:13;;;;;;;;;14.00;14.00;;;;;25.54;50.30;100973.66;5078124;27;46217;-87
2021/06/16 08:09:42;;;;;;;;;15.00;13.00;;;;;25.75;50.04;100988.97;5078439;27;45420;-88
2021/06/16 08:12:09;;;;;;;;;13.67;13.33;;;;;25.93;49.43;100976.56;5076763;28;45418;-88
2021/06/16 08:14:35;;;;;;;;;16.00;16.00;;;;;26.07;48.83;100965.16;5077173;27;45656;-88
2021/06/16 08:17:01;;;;;;;;;15.00;13.33;;;;;26.28;48.66;100958.88;5077986;27;46230;-87
2021/06/16 08:19:26;;;;;;;;;14.00;12.67;;;;;26.57;49.13;100962.94;5077662;27;45326;-87
2021/06/16 08:21:52;;;;;;;;;14.33;13.67;;;;;26.86;49.22;100970.63;5078278;27;45312;-89
2021/06/16 08:24:17;;;;;;;;;18.00;15.33;;;;;27.19;48.51;100965.47;5078653;27;45637;-88
2021/06/16 08:26:43;;;;;;;;;16.67;14.33;;;;;27.42;47.08;100958.94;5076548;28;47476;-88
2021/06/16 08:29:08;;;;;;;;;15.67;15.00;;;;;27.76;47.15;100964.47;5078309;27;45419;-89
2021/06/16 08:31:33;;;;;;;;;13.00;12.00;;;;;28.01;45.95;100957.78;5078519;27;45388;-92
2021/06/16 08:33:59;;;;;;;;;11.67;11.67;;;;;28.26;45.80;100953.75;5077460;27;45281;-91
2021/06/16 08:36:25;;;;;;;;;13.00;12.67;;;;;28.57;46.00;100955.75;5078110;27;45476;-87
2021/06/16 08:38:50;;;;;;;;;12.67;12.00;;;;;28.90;44.68;100965.63;5076909;28;46027;-86
2021/06/16 08:41:17;;;;;;;;;13.00;12.00;;;;;29.11;44.44;100954.56;5077422;28;45338;-89
2021/06/16 08:43:44;;;;;;;;;12.67;11.33;;;;;29.38;43.26;100959.31;5079229;27;45352;-88
2021/06/16 08:46:12;;;;;;;;;13.33;11.33;;;;;29.73;43.56;100960.94;5081758;28;46470;-88
2021/06/16 08:48:39;;;;;;;;;10.00;9.67;;;;;29.99;42.92;100942.22;5076868;28;45445;-87
2021/06/16 08:51:06;;;;;;;;;9.67;9.00;;;;;30.41;42.19;100946.88;5076564;27;45470;-88
2021/06/16 08:53:33;;;;;;;;;10.67;10.00;;;;;30.89;41.93;100958.34;5078225;27;45372;-88
2021/06/16 08:55:59;;;;;;;;;10.67;10.00;;;;;31.37;40.56;100955.16;5076670;28;48479;-90
2021/06/16 08:58:24;;;;;;;;;11.33;9.33;;;;;31.78;40.50;100941.59;5077819;27;45285;-89
2021/06/16 09:00:50;;;;;;;;;12.00;10.00;;;;;32.38;40.10;100959.22;5081588;27;45409;-89
2021/06/16 09:03:15;;;;;;;;;14.33;12.00;;;;;32.84;38.91;100948.69;5083754;27;45330;-88
2021/06/16 09:05:41;;;;;;;;;12.33;12.33;;;;;33.39;38.49;100960.03;5084472;28;46191;-90
2021/06/16 09:08:15;;;;;;;;;14.00;11.00;;;;;33.78;37.33;100944.44;5084890;28;45260;-89
2021/06/16 09:10:50;;;;;;;;;10.00;10.00;;;;;34.14;36.57;100936.19;5086385;28;45414;-89
2021/06/16 09:13:25;;;;;;;;;9.67;8.33;;;;;34.63;35.81;100952.28;5088683;27;45202;-88
2021/06/16 09:15:52;;;;;;;;;8.00;8.00;;;;;35.03;34.97;100952.72;5090155;27;45242;-88
2021/06/16 09:18:18;;;;;;;;;10.00;9.33;;;;;35.55;34.35;100946.56;5082837;27;45235;-89
2021/06/16 09:20:47;;;;;;;;;9.33;9.33;;;;;36.21;33.27;100932.69;5080661;27;45420;-90
2021/06/16 09:23:18;;;;;;;;;14.33;12.00;;;;;37.39;31.96;100943.06;5078800;27;45405;-90
2021/06/16 09:26:03;;;;;;;;;12.00;9.67;;;;;38.53;30.89;100944.16;5076275;28;48395;-89
2021/06/16 09:28:50;;;;;;;;;9.67;8.00;;;;;38.94;30.25;100943.78;5077674;27;45556;-88
2021/06/16 09:31:17;;;;;;;;;12.00;10.00;;;;;38.71;29.17;100943.34;5078627;27;45456;-89
2021/06/16 09:33:43;;;;;;;;;10.00;10.00;;;;;38.27;29.29;100929.25;5076579;27;45525;-88
2021/06/16 09:36:20;;;;;;;;;9.67;8.00;;;;;38.09;28.99;100921.84;5077715;27;46148;-88
2021/06/16 09:38:48;;;;;;;;;11.00;11.00;;;;;38.14;29.61;100929.59;5077956;27;45270;-90
2021/06/16 09:41:19;;;;;;;;;9.00;8.33;;;;;38.12;29.42;100912.41;5077528;27;45409;-90
2021/06/16 09:43:45;;;;;;;;;9.00;9.00;;;;;38.23;28.79;100922.34;5075778;27;45367;-90
2021/06/16 09:46:13;;;;;;;;;9.00;9.00;;;;;38.28;29.07;100927.38;5079736;27;46193;-89
2021/06/16 09:48:43;;;;;;;;;9.67;9.33;;;;;38.21;28.04;100918.88;5080602;27;45440;-89
2021/06/16 09:51:18;;;;;;;;;8.00;8.00;;;;;38.38;28.67;100933.69;5079246;27;45416;-90
2021/06/16 09:54:14;;;;;;;;;8.33;8.33;;;;;38.43;28.49;100934.13;5080723;27;45353;-89
2021/06/16 09:56:51;;;;;;;;;11.00;10.00;;;;;38.52;28.25;100934.22;5079214;28;47561;-90
2021/06/16 09:59:35;;;;;;;;;9.00;7.00;;;;;38.51;28.17;100924.25;5080248;28;45949;-90
2021/06/16 10:02:01;;;;;;;;;8.33;8.00;;;;;38.48;27.90;100910.84;5082300;28;45493;-90
2021/06/16 10:04:31;;;;;;;;;9.33;8.00;;;;;38.59;27.86;100928.94;5082220;27;45418;-89
2021/06/16 10:07:34;;;;;;;;;8.33;8.33;;;;;38.60;27.08;100926.06;5081146;28;46239;-91
2021/06/16 10:09:59;;;;;;;;;9.33;9.33;;;;;38.62;27.06;100929.53;5059506;28;45553;-90
2021/06/16 10:12:28;;;;;;;;;10.00;10.00;;;;;38.64;27.81;100927.50;5041733;28;45470;-91
2021/06/16 10:14:54;;;;;;;;;13.67;10.33;;;;;38.56;26.62;100922.75;5058659;28;45363;-89
2021/06/16 10:17:20;;;;;;;;;13.50;11.00;;;;;38.52;27.13;100912.25;5057968;28;46445;-89
2021/06/16 10:19:47;;;;;;;;;10.33;10.00;;;;;38.51;26.83;100916.00;5041606;28;45910;-89
2021/06/16 10:22:12;;;;;;;;;10.00;10.00;;;;;38.39;26.80;100912.63;5058775;28;45365;-90
2021/06/16 10:24:39;;;;;;;;;8.67;8.33;;;;;38.30;26.86;100904.28;5041304;28;45390;-91
2021/06/16 10:27:07;;;;;;;;;10.67;10.67;;;;;38.25;27.01;100911.19;5058735;28;45393;-92
2021/06/16 10:29:37;;;;;;;;;14.67;12.33;;;;;38.25;27.25;100924.91;5057404;28;45434;-89
2021/06/16 10:32:07;;;;;;;;;10.33;8.33;;;;;38.08;27.16;100889.03;5057541;28;45389;-91
2021/06/16 10:34:51;;;;;;;;;12.00;10.00;;;;;38.06;26.50;100904.78;5058252;28;45602;-91
2021/06/16 10:37:37;;;;;;;;;13.67;11.33;;;;;37.93;26.87;100884.06;5040604;28;48569;-91
2021/06/16 10:40:25;;;;;;;;;6.00;6.00;;;;;38.05;26.26;100894.84;5057156;28;45469;-90
2021/06/16 10:43:02;;;;;;;;;13.00;11.33;;;;;38.03;26.31;100891.38;5058563;28;45399;-90
2021/06/16 10:45:31;;;;;;;;;10.33;9.67;;;;;37.97;27.21;100880.00;5082377;27;45452;-91
2021/06/16 10:47:58;;;;;;;;;11.00;10.00;;;;;38.01;27.33;100876.97;5080204;27;45444;-91
2021/06/16 10:50:50;;;;;;;;;10.67;10.67;;;;;38.09;26.80;100890.78;5078454;28;45351;-93
2021/06/16 10:53:21;;;;;;;;;9.67;9.33;;;;;37.97;26.38;100874.50;5079856;27;45413;-89
2021/06/16 10:55:52;;;;;;;;;13.67;13.00;;;;;37.99;26.96;100877.13;5079048;27;45337;-90
2021/06/16 10:58:19;;;;;;;;;13.33;11.33;;;;;37.94;26.74;100874.81;5079520;28;45504;-91
2021/06/16 11:01:13;;;;;;;;;10.00;10.00;;;;;37.85;26.28;100857.38;5079483;27;45439;-89
2021/06/16 11:03:51;;;;;;;;;11.67;11.00;;;;;37.87;26.10;100880.03;5080454;27;45381;-88
2021/06/16 11:06:41;;;;;;;;;10.00;10.00;;;;;37.87;26.31;100879.16;5080267;27;45266;-88
2021/06/16 11:09:11;;;;;;;;;11.67;11.67;;;;;37.84;26.57;100865.78;5084502;27;45419;-88
2021/06/16 11:11:52;;;;;;;;;10.67;10.67;;;;;37.84;25.96;100865.78;5081850;27;45341;-90
2021/06/16 11:14:48;;;;;;;;;10.67;10.00;;;;;37.85;25.94;100862.88;5079402;27;45180;-90
2021/06/16 11:17:36;;;;;;;;;9.00;9.00;;;;;37.87;26.23;100857.22;5057173;28;45245;-91